createdAt,value
2023-02-04T00:03:33.659Z,83.21
2023-02-04T00:08:37.650Z,83.50
2023-02-04T00:13:40.508Z,83.26
2023-02-04T00:18:43.104Z,83.59
2023-02-04T00:23:45.642Z,83.61
2023-02-04T00:28:48.460Z,83.04
2023-02-04T00:33:52.535Z,83.17
2023-02-04T00:38:55.356Z,83.77
2023-02-04T00:43:57.922Z,83.28
2023-02-04T00:49:00.553Z,83.17
2023-02-04T00:54:03.064Z,84.32
2023-02-04T00:59:05.637Z,83.75
2023-02-04T01:04:08.326Z,84.00
2023-02-04T01:09:11.823Z,83.83
2023-02-04T01:14:14.386Z,84.16
2023-02-04T01:19:17.453Z,83.96
2023-02-04T01:24:19.979Z,85.12
2023-02-04T01:29:41.305Z,83.83
2023-02-04T01:34:43.866Z,83.75
2023-02-04T01:39:46.701Z,83.68
2023-02-04T01:44:49.792Z,84.19
2023-02-04T01:49:54.762Z,84.03
2023-02-04T01:54:57.289Z,84.47
2023-02-04T01:59:59.839Z,84.11
2023-02-04T02:05:03.249Z,84.30
2023-02-04T02:10:08.055Z,84.64
2023-02-04T02:15:13.905Z,84.70
2023-02-04T02:20:18.011Z,84.61
2023-02-04T02:25:20.648Z,85.27
2023-02-04T02:30:23.699Z,85.00
2023-02-04T02:35:26.359Z,86.40
2023-02-04T02:40:29.390Z,87.28
2023-02-04T02:45:34.294Z,86.69
2023-02-04T02:50:37.304Z,86.86
2023-02-04T02:55:40.610Z,86.43
2023-02-04T03:00:44.451Z,86.67
2023-02-04T03:05:52.974Z,86.63
2023-02-04T03:10:56.757Z,86.58
2023-02-04T03:16:00.581Z,86.40
2023-02-04T03:21:05.938Z,87.16
2023-02-04T03:26:08.663Z,87.91
2023-02-04T03:31:11.494Z,87.47
2023-02-04T03:36:14.159Z,87.33
2023-02-04T03:41:16.896Z,87.18
2023-02-04T03:46:19.583Z,87.49
2023-02-04T03:51:22.338Z,86.79
2023-02-04T03:56:25.109Z,87.11
2023-02-04T04:01:27.701Z,87.96
2023-02-04T04:06:31.581Z,87.36
2023-02-04T04:11:34.121Z,87.43
2023-02-04T04:16:36.742Z,86.97
2023-02-04T04:21:39.346Z,87.06
2023-02-04T04:26:41.880Z,87.30
2023-02-04T04:31:45.163Z,86.98
2023-02-04T04:36:47.771Z,87.08
2023-02-04T04:41:50.304Z,87.00
2023-02-04T04:46:52.924Z,86.70
2023-02-04T04:51:55.645Z,86.86
2023-02-04T04:56:58.196Z,87.30
2023-02-04T05:02:00.756Z,87.75
2023-02-04T05:07:03.430Z,87.75
2023-02-04T05:12:06.352Z,87.60
2023-02-04T05:17:08.936Z,88.00
2023-02-04T05:22:11.611Z,87.44
2023-02-04T05:27:14.471Z,87.08
2023-02-04T05:32:17.003Z,86.87
2023-02-04T05:37:21.129Z,86.74
2023-02-04T05:42:23.770Z,87.22
2023-02-04T05:47:26.324Z,87.59
2023-02-04T05:52:28.970Z,88.22
2023-02-04T05:57:31.625Z,87.62
2023-02-04T06:02:34.218Z,87.70
2023-02-04T06:07:36.864Z,88.24
2023-02-04T06:12:39.499Z,88.21
2023-02-04T06:17:42.102Z,87.79
2023-02-04T06:22:44.702Z,88.21
2023-02-04T06:27:47.449Z,88.26
2023-02-04T06:32:50.035Z,89.05
2023-02-04T06:37:52.559Z,88.87
2023-02-04T06:42:55.142Z,88.01
2023-02-04T06:47:57.700Z,88.38
2023-02-04T06:53:00.368Z,88.24
2023-02-04T06:58:03.015Z,87.67
2023-02-04T07:03:07.522Z,87.35
2023-02-04T07:08:10.097Z,87.71
2023-02-04T07:13:12.730Z,87.44
2023-02-04T07:18:15.458Z,87.92
2023-02-04T07:23:18.018Z,87.84
2023-02-04T07:28:20.592Z,87.35
2023-02-04T07:33:23.690Z,87.05
2023-02-04T07:38:26.232Z,87.56
2023-02-04T07:43:28.706Z,86.42
2023-02-04T07:48:31.298Z,86.75
2023-02-04T07:53:33.926Z,86.29
2023-02-04T07:58:36.716Z,85.97
2023-02-04T08:03:41.627Z,85.40
2023-02-04T08:08:44.484Z,85.55
2023-02-04T08:13:47.111Z,85.29
2023-02-04T08:18:49.668Z,84.83
2023-02-04T08:23:52.454Z,83.83
2023-02-04T08:28:55.067Z,83.06
2023-02-04T08:33:58.072Z,83.50
2023-02-04T08:39:00.817Z,83.34
2023-02-04T08:44:03.486Z,82.64
2023-02-04T08:49:06.111Z,83.17
2023-02-04T08:54:08.699Z,82.76
2023-02-04T08:59:12.120Z,81.84
2023-02-04T09:04:15.217Z,81.52
2023-02-04T09:09:18.867Z,80.89
2023-02-04T09:14:22.224Z,80.81
2023-02-04T09:19:26.167Z,80.24
2023-02-04T09:24:28.892Z,80.20
2023-02-04T09:29:31.548Z,80.08
2023-02-04T09:34:34.132Z,80.13
2023-02-04T09:39:36.705Z,80.00
2023-02-04T09:44:39.375Z,79.18
2023-02-04T09:49:47.012Z,79.42
2023-02-04T09:54:49.645Z,79.08
2023-02-04T09:59:56.694Z,78.71
2023-02-04T10:04:59.213Z,78.86
2023-02-04T10:10:01.862Z,79.18
2023-02-04T10:15:11.137Z,78.78
2023-02-04T10:20:22.380Z,78.05
2023-02-04T10:25:26.400Z,77.73
2023-02-04T10:30:35.985Z,78.15
2023-02-04T10:35:48.233Z,78.09
2023-02-04T10:41:05.917Z,79.49
2023-02-04T10:46:08.729Z,81.29
2023-02-04T10:51:13.437Z,79.89
2023-02-04T10:56:21.831Z,80.58
2023-02-04T11:01:28.897Z,81.79
2023-02-04T11:06:31.779Z,81.53
2023-02-04T11:11:34.771Z,80.62
2023-02-04T11:16:48.872Z,80.52
2023-02-04T11:21:51.661Z,80.41
2023-02-04T11:27:09.172Z,80.56
2023-02-04T11:32:38.100Z,81.58
2023-02-04T11:37:43.470Z,81.43
2023-02-04T11:42:46.356Z,80.65
2023-02-04T11:47:50.843Z,81.43
2023-02-04T11:52:55.062Z,81.68
2023-02-04T11:57:58.537Z,81.80
2023-02-04T12:03:06.792Z,81.38
2023-02-04T12:08:33.772Z,82.00
2023-02-04T12:13:50.050Z,82.34
2023-02-04T12:18:52.628Z,81.79
2023-02-04T12:23:55.562Z,82.50
2023-02-04T12:29:01.658Z,82.32
2023-02-04T12:34:04.400Z,82.47
2023-02-04T12:39:06.986Z,82.08
2023-02-04T12:44:10.986Z,83.05
2023-02-04T12:49:13.561Z,82.42
2023-02-04T12:54:16.453Z,82.29
2023-02-04T12:59:19.337Z,83.38
2023-02-04T13:04:24.649Z,83.54
2023-02-04T13:09:27.878Z,83.32
2023-02-04T13:14:30.659Z,81.98
2023-02-04T13:19:36.614Z,82.61
2023-02-04T13:24:42.086Z,83.39
2023-02-04T13:29:45.697Z,83.13
2023-02-04T13:34:48.601Z,83.57
2023-02-04T13:39:51.615Z,82.97
2023-02-04T13:44:55.564Z,82.76
2023-02-04T13:50:01.395Z,82.72
2023-02-04T13:55:06.401Z,82.80
2023-02-04T14:00:09.884Z,82.85
2023-02-04T14:05:16.137Z,82.90
2023-02-04T14:10:18.922Z,82.66
2023-02-04T14:15:21.663Z,82.54
2023-02-04T14:20:24.251Z,82.69
2023-02-04T14:25:26.901Z,82.27
2023-02-04T14:30:30.447Z,82.02
2023-02-04T14:35:33.157Z,81.56
2023-02-04T14:40:35.775Z,81.77
2023-02-04T14:45:40.184Z,82.06
2023-02-04T14:50:42.775Z,82.32
2023-02-04T14:55:45.978Z,81.76
2023-02-04T15:00:48.498Z,82.00
2023-02-04T15:05:51.231Z,81.37
2023-02-04T15:10:53.885Z,82.11
2023-02-04T15:15:56.842Z,82.60
2023-02-04T15:20:59.494Z,81.93
2023-02-04T15:26:02.327Z,81.23
2023-02-04T15:31:05.533Z,81.81
2023-02-04T15:36:08.465Z,83.16
2023-02-04T15:41:11.129Z,83.64
2023-02-04T15:46:13.753Z,83.19
2023-02-04T15:51:16.486Z,83.02
2023-02-04T15:56:21.322Z,83.57
2023-02-04T16:01:23.961Z,84.32
2023-02-04T16:06:26.760Z,85.33
2023-02-04T16:11:29.388Z,86.88
2023-02-04T16:16:34.403Z,88.51
2023-02-04T16:21:36.967Z,88.48
2023-02-04T16:26:39.532Z,89.78
2023-02-04T16:31:42.233Z,89.50
2023-02-04T16:36:44.799Z,89.22
2023-02-04T16:41:47.362Z,90.68
2023-02-04T16:46:50.879Z,91.29
2023-02-04T16:51:53.710Z,91.71
2023-02-04T16:56:57.007Z,92.48
2023-02-04T17:02:00.817Z,91.93
2023-02-04T17:07:04.324Z,92.91
2023-02-04T17:12:07.356Z,92.96
2023-02-04T17:17:15.519Z,92.22
2023-02-04T17:22:18.748Z,91.50
2023-02-04T17:27:23.952Z,91.65
2023-02-04T17:32:28.107Z,91.09
2023-02-04T17:37:33.421Z,90.96
2023-02-04T17:42:36.976Z,90.33
2023-02-04T17:47:40.228Z,90.49
2023-02-04T17:52:42.963Z,91.07
2023-02-04T17:57:45.670Z,91.43
2023-02-04T18:02:50.124Z,92.30
2023-02-04T18:08:11.544Z,93.69
2023-02-04T18:13:25.638Z,94.13
2023-02-04T18:18:39.959Z,94.31
2023-02-04T18:23:44.358Z,94.09
2023-02-04T18:28:50.946Z,93.50
2023-02-04T18:33:57.834Z,93.39
2023-02-04T18:39:03.817Z,94.06
2023-02-04T18:44:46.646Z,94.41
2023-02-04T18:49:49.334Z,94.24
2023-02-04T18:54:56.479Z,95.02
2023-02-04T19:00:14.650Z,95.27
2023-02-04T19:05:34.501Z,95.33
2023-02-04T19:10:39.619Z,94.73
2023-02-04T19:15:42.454Z,95.00
2023-02-04T19:20:50.223Z,94.51
2023-02-04T19:25:53.179Z,93.64
2023-02-04T19:31:10.568Z,93.22
2023-02-04T19:36:23.666Z,93.74
2023-02-04T19:41:38.592Z,95.22
2023-02-04T19:46:42.507Z,95.38
2023-02-04T19:51:48.733Z,95.51
2023-02-04T19:56:52.429Z,94.75
2023-02-04T20:02:07.420Z,95.24
2023-02-04T20:07:22.031Z,94.90
2023-02-04T20:12:25.410Z,95.12
2023-02-04T20:17:38.980Z,94.16
2023-02-04T20:22:50.167Z,94.09
2023-02-04T20:27:57.227Z,94.13
2023-02-04T20:33:30.843Z,94.19
2023-02-04T20:38:33.447Z,94.65
2023-02-04T20:43:35.999Z,94.63
2023-02-04T20:48:38.741Z,95.02
2023-02-04T20:53:57.883Z,94.01
2023-02-04T20:59:12.592Z,94.71
2023-02-04T21:04:36.829Z,93.74
2023-02-04T21:09:40.235Z,93.06
2023-02-04T21:14:43.039Z,93.43
2023-02-04T21:19:45.705Z,94.29
2023-02-04T21:24:48.908Z,93.56
2023-02-04T21:29:53.882Z,93.56
2023-02-04T21:34:56.503Z,93.13
2023-02-04T21:39:59.078Z,93.73
2023-02-04T21:45:01.624Z,93.57
2023-02-04T21:50:04.628Z,92.89
2023-02-04T21:55:08.270Z,92.76
2023-02-04T22:00:11.553Z,92.69
2023-02-04T22:05:14.209Z,92.95
2023-02-04T22:10:23.899Z,93.44
2023-02-04T22:15:28.182Z,93.31
2023-02-04T22:20:31.141Z,93.21
2023-02-04T22:25:33.962Z,93.83
2023-02-04T22:30:37.922Z,92.97
2023-02-04T22:35:40.711Z,93.08
2023-02-04T22:40:43.423Z,92.96
2023-02-04T22:45:46.028Z,93.00
2023-02-04T22:50:48.708Z,92.80
2023-02-04T22:55:51.268Z,92.71
2023-02-04T23:00:54.077Z,92.82
2023-02-04T23:05:56.740Z,92.80
2023-02-04T23:10:59.519Z,92.89
2023-02-04T23:16:02.475Z,93.16
2023-02-04T23:21:05.513Z,93.29
2023-02-04T23:26:08.401Z,93.01
2023-02-04T23:31:11.353Z,92.57
2023-02-04T23:36:14.114Z,92.94
2023-02-04T23:41:17.219Z,91.73
2023-02-04T23:46:19.926Z,91.60
2023-02-04T23:51:22.477Z,91.55
2023-02-04T23:56:25.092Z,91.84
